Time;durP1;ratioP1;P1;durP2;ratioP2;P2;SDS_P1;SDS_P2;PMS_P1;PMS_P2;Temp;Humidity;BMP_temperature;BMP_pressure;BME280_temperature;BME280_humidity;BME280_pressure;Samples;Min_cycle;Max_cycle;Signal;HPM_P1;HPM_P2
2021/01/19 00:01:37;;;;;;;228.02;100.27;;;;;;;-7.59;68.88;98915.27;2162715;82;21292;-89
2021/01/19 00:04:38;;;;;;;246.82;101.75;;;;;;;-7.60;69.18;98909.36;2162722;82;21146;-89
2021/01/19 00:07:40;;;;;;;234.47;106.15;;;;;;;-7.64;68.71;98915.47;2162900;82;21312;-89
2021/01/19 00:10:41;;;;;;;229.60;96.78;;;;;;;-7.66;68.96;98908.36;2163126;82;21703;-89
2021/01/19 00:13:43;;;;;;;251.75;107.37;;;;;;;-7.64;69.02;98910.39;2162705;82;21275;-88
2021/01/19 00:16:44;;;;;;;241.80;104.12;;;;;;;-7.62;69.22;98910.32;2162734;82;21295;-89
2021/01/19 00:19:46;;;;;;;252.40;104.80;;;;;;;-7.55;69.23;98901.56;2162835;82;21551;-89
2021/01/19 00:22:47;;;;;;;264.70;109.40;;;;;;;-7.50;69.24;98908.55;2162808;82;21110;-88
2021/01/19 00:25:49;;;;;;;236.62;107.83;;;;;;;-7.47;69.20;98909.27;2182343;80;21308;-89
2021/01/19 00:28:51;;;;;;;227.97;94.95;;;;;;;-7.41;69.24;98900.54;2187708;81;21309;-89
2021/01/19 00:31:53;;;;;;;243.65;106.50;;;;;;;-7.39;69.12;98901.33;2187963;81;21308;-87
2021/01/19 00:34:55;;;;;;;232.18;97.35;;;;;;;-7.39;69.36;98903.87;2187810;81;21154;-86
2021/01/19 00:37:59;;;;;;;238.30;101.27;;;;;;;-7.41;69.33;98903.53;2188115;81;21194;-88
2021/01/19 00:41:00;;;;;;;220.20;92.53;;;;;;;-7.40;69.60;98892.49;2187513;81;21301;-87
2021/01/19 00:44:02;;;;;;;233.25;100.27;;;;;;;-7.35;69.84;98890.12;2187975;81;21300;-88
2021/01/19 00:47:04;;;;;;;231.53;101.18;;;;;;;-7.30;69.70;98885.67;2189188;81;21261;-91
2021/01/19 00:50:05;;;;;;;251.47;106.47;;;;;;;-7.28;69.82;98880.52;2191675;81;21142;-94
2021/01/19 00:53:07;;;;;;;246.57;106.63;;;;;;;-7.28;69.80;98874.16;2190328;81;21129;-85
2021/01/19 00:56:08;;;;;;;236.35;104.25;;;;;;;-7.28;69.93;98874.16;2161769;82;21296;-89
2021/01/19 00:59:10;;;;;;;243.85;105.30;;;;;;;-7.19;69.88;98875.05;2160294;82;21323;-89
2021/01/19 01:02:11;;;;;;;225.07;100.38;;;;;;;-7.21;70.01;98862.84;2162024;82;21268;-88
2021/01/19 01:05:13;;;;;;;231.00;102.32;;;;;;;-7.22;69.99;98871.36;2161732;82;21289;-88
2021/01/19 01:08:14;;;;;;;247.98;104.72;;;;;;;-7.20;70.22;98864.48;2164251;82;21127;-92
2021/01/19 01:11:16;;;;;;;225.72;102.30;;;;;;;-7.19;70.16;98869.95;2164293;82;21538;-85
2021/01/19 01:14:18;;;;;;;241.80;104.55;;;;;;;-7.17;70.33;98857.53;2163280;82;21150;-85
2021/01/19 01:17:19;;;;;;;216.38;91.65;;;;;;;-7.13;70.37;98859.52;2160458;82;21268;-88
2021/01/19 01:20:21;;;;;;;232.57;97.02;;;;;;;-7.09;70.43;98853.84;2160221;82;21145;-89
2021/01/19 01:23:23;;;;;;;223.43;96.22;;;;;;;-6.99;70.45;98843.64;2160506;82;21308;-89
2021/01/19 01:26:24;;;;;;;195.18;85.35;;;;;;;-6.93;70.45;98840.83;2152291;82;21174;-90
2021/01/19 01:29:25;;;;;;;224.35;101.22;;;;;;;-6.88;70.44;98840.17;2180444;82;21313;-89
2021/01/19 01:32:28;;;;;;;247.67;104.87;;;;;;;-6.85;70.38;98832.41;2180400;81;21303;-89
2021/01/19 01:35:29;;;;;;;216.63;93.35;;;;;;;-6.79;70.48;98840.20;2147799;83;21123;-90
2021/01/19 01:38:31;;;;;;;216.33;92.45;;;;;;;-6.79;70.56;98835.94;2118200;83;21139;-90
2021/01/19 01:41:33;;;;;;;225.57;99.17;;;;;;;-6.78;70.67;98835.04;2147389;83;21127;-89
2021/01/19 01:44:34;;;;;;;210.25;90.72;;;;;;;-6.79;70.57;98827.48;2147430;83;21154;-89
2021/01/19 01:47:36;;;;;;;235.55;101.00;;;;;;;-6.80;70.84;98825.83;2147642;83;21305;-88
2021/01/19 01:50:37;;;;;;;201.35;88.52;;;;;;;-6.85;70.84;98818.41;2147286;83;21135;-90
2021/01/19 01:53:39;;;;;;;211.62;92.40;;;;;;;-6.91;71.09;98810.59;2147521;83;21178;-90
2021/01/19 01:56:41;;;;;;;225.03;97.30;;;;;;;-6.93;71.32;98810.28;2147344;83;21150;-89
2021/01/19 01:59:42;;;;;;;204.40;91.42;;;;;;;-6.92;71.23;98808.11;2147608;83;21174;-89
2021/01/19 02:02:44;;;;;;;212.15;95.38;;;;;;;-6.90;71.53;98802.50;2147352;83;21558;-90
2021/01/19 02:05:45;;;;;;;208.68;94.70;;;;;;;-6.88;71.34;98799.43;2147629;83;21285;-88
2021/01/19 02:08:47;;;;;;;179.95;78.25;;;;;;;-6.84;71.35;98802.69;2148047;83;21308;-89
2021/01/19 02:11:48;;;;;;;224.35;100.45;;;;;;;-6.75;71.80;98798.00;2147378;83;21159;-88
2021/01/19 02:14:50;;;;;;;223.90;98.25;;;;;;;-6.68;71.41;98799.34;2147463;83;21163;-88
2021/01/19 02:17:51;;;;;;;217.50;93.82;;;;;;;-6.66;71.39;98785.30;2147363;83;21189;-89
2021/01/19 02:20:53;;;;;;;209.92;87.90;;;;;;;-6.67;71.54;98781.10;2147393;83;21154;-89
2021/01/19 02:23:55;;;;;;;195.50;86.65;;;;;;;-6.64;71.52;98780.50;2147267;83;21150;-89
2021/01/19 02:26:56;;;;;;;209.00;87.80;;;;;;;-6.59;71.76;98777.72;2142206;82;21677;-88
2021/01/19 02:29:58;;;;;;;209.87;93.72;;;;;;;-6.55;71.85;98776.70;2142505;83;21300;-88
2021/01/19 02:32:59;;;;;;;208.15;94.07;;;;;;;-6.56;71.87;98772.95;2142431;83;21308;-89
2021/01/19 02:36:01;;;;;;;211.90;93.50;;;;;;;-6.55;72.01;98769.06;2142128;83;21159;-89
2021/01/19 02:39:03;;;;;;;216.60;96.97;;;;;;;-6.54;72.09;98767.34;2142524;82;21308;-89
2021/01/19 02:42:05;;;;;;;210.90;95.07;;;;;;;-6.47;72.11;98753.42;2162269;82;21312;-88
2021/01/19 02:45:07;;;;;;;213.92;91.70;;;;;;;-6.41;72.15;98751.38;2123962;84;21167;-88
2021/01/19 02:48:08;;;;;;;205.47;89.25;;;;;;;-6.39;72.20;98751.34;2162263;82;21296;-89
2021/01/19 02:51:10;;;;;;;184.60;80.90;;;;;;;-6.38;72.09;98752.53;2124537;84;21179;-89
2021/01/19 02:54:11;;;;;;;198.28;90.07;;;;;;;-6.39;72.18;98752.16;2165498;79;21115;-92
2021/01/19 02:57:13;;;;;;;206.72;91.87;;;;;;;-6.43;72.01;98753.19;2127104;81;21156;-86
2021/01/19 03:00:14;;;;;;;165.15;73.47;;;;;;;-6.44;72.21;98745.17;2165282;80;21189;-88
2021/01/19 03:03:16;;;;;;;207.92;92.20;;;;;;;-6.43;72.31;98748.09;2164907;82;21323;-87
2021/01/19 03:06:18;;;;;;;191.35;87.10;;;;;;;-6.46;72.26;98738.05;2162806;82;21173;-89
2021/01/19 03:09:20;;;;;;;179.55;86.08;;;;;;;-6.44;72.54;98743.90;2142055;83;21162;-89
2021/01/19 03:12:22;;;;;;;208.15;91.22;;;;;;;-6.40;72.61;98742.02;2162266;82;21764;-90
2021/01/19 03:15:23;;;;;;;200.93;87.53;;;;;;;-6.39;72.45;98733.50;2162801;82;21145;-90
2021/01/19 03:18:25;;;;;;;201.90;88.42;;;;;;;-6.35;72.52;98733.27;2162904;82;21291;-89
2021/01/19 03:21:27;;;;;;;196.98;85.38;;;;;;;-6.32;72.42;98729.73;2162886;82;21741;-89
2021/01/19 03:24:28;;;;;;;199.68;91.35;;;;;;;-6.31;72.67;98728.84;2164529;81;21276;-89
2021/01/19 03:27:30;;;;;;;205.10;91.50;;;;;;;-6.34;72.46;98723.45;2187518;81;21312;-89
2021/01/19 03:30:32;;;;;;;200.30;87.45;;;;;;;-6.34;72.63;98728.99;2160744;82;21489;-92
2021/01/19 03:33:33;;;;;;;203.95;93.33;;;;;;;-6.34;72.63;98723.90;2164963;82;21293;-87
2021/01/19 03:36:35;;;;;;;214.48;92.50;;;;;;;-6.36;72.66;98723.97;2164017;82;21276;-85
2021/01/19 03:39:36;;;;;;;206.02;96.12;;;;;;;-6.31;72.88;98718.64;2162704;82;21308;-89
2021/01/19 03:42:39;;;;;;;227.70;94.65;;;;;;;-6.22;72.92;98711.00;2160064;82;21166;-90
2021/01/19 03:45:41;;;;;;;207.75;92.22;;;;;;;-6.18;72.90;98708.24;2160062;82;21292;-89
2021/01/19 03:48:42;;;;;;;200.78;88.52;;;;;;;-6.15;73.10;98703.44;2160810;82;21149;-89
2021/01/19 03:51:44;;;;;;;206.10;95.05;;;;;;;-6.08;73.19;98701.79;2162436;82;21292;-92
2021/01/19 03:54:45;;;;;;;214.85;96.92;;;;;;;-5.98;73.48;98708.98;2164098;82;21276;-85
2021/01/19 03:57:47;;;;;;;204.57;93.70;;;;;;;-5.92;73.36;98704.41;2163209;82;21312;-85
2021/01/19 04:00:48;;;;;;;208.65;92.92;;;;;;;-5.85;73.51;98708.27;2160801;82;21301;-89
2021/01/19 04:03:50;;;;;;;202.18;94.22;;;;;;;-5.88;73.56;98702.03;2160698;82;21570;-90
2021/01/19 04:06:51;;;;;;;188.85;92.60;;;;;;;-5.80;73.52;98708.84;2160536;82;21291;-90
2021/01/19 04:09:53;;;;;;;196.28;91.10;;;;;;;-5.72;73.36;98704.64;2160194;82;21158;-89
2021/01/19 04:12:54;;;;;;;215.28;93.07;;;;;;;-5.69;73.21;98701.92;2160487;82;21320;-89
2021/01/19 04:15:56;;;;;;;228.37;100.92;;;;;;;-5.73;73.31;98699.17;2160362;82;21174;-89
2021/01/19 04:18:58;;;;;;;205.03;92.55;;;;;;;-5.76;73.12;98701.44;2159960;82;21606;-85
2021/01/19 04:21:59;;;;;;;178.60;82.45;;;;;;;-5.72;73.29;98694.44;2160493;82;21281;-89
2021/01/19 04:25:01;;;;;;;216.50;98.45;;;;;;;-5.74;73.40;98699.62;2158647;82;21348;-90
2021/01/19 04:28:03;;;;;;;202.40;91.92;;;;;;;-5.74;73.40;98688.59;2181955;82;21143;-89
2021/01/19 04:31:05;;;;;;;202.13;91.82;;;;;;;-5.76;73.41;98689.95;2180778;81;21170;-89
2021/01/19 04:34:07;;;;;;;221.40;98.58;;;;;;;-5.73;73.54;98683.41;2179993;82;21294;-89
2021/01/19 04:37:09;;;;;;;226.22;99.85;;;;;;;-5.70;73.43;98685.42;2147461;83;21170;-89
2021/01/19 04:40:10;;;;;;;221.77;97.53;;;;;;;-5.68;73.45;98684.89;2147498;83;21162;-89
2021/01/19 04:43:12;;;;;;;208.57;96.65;;;;;;;-5.69;73.42;98685.80;2147273;83;21155;-89
2021/01/19 04:46:13;;;;;;;212.40;99.03;;;;;;;-5.70;73.49;98681.59;2147187;83;21142;-89
2021/01/19 04:49:15;;;;;;;204.25;93.55;;;;;;;-5.65;73.58;98686.02;2147276;83;21558;-88
2021/01/19 04:52:17;;;;;;;193.22;89.85;;;;;;;-5.63;73.55;98679.11;2147100;83;21579;-89
2021/01/19 04:55:18;;;;;;;211.07;99.40;;;;;;;-5.63;73.44;98685.03;2147291;83;21162;-89
2021/01/19 04:58:20;;;;;;;217.05;94.92;;;;;;;-5.61;73.47;98683.67;2147130;83;21182;-89
2021/01/19 05:01:22;;;;;;;207.60;98.15;;;;;;;-5.61;73.41;98676.02;2147151;83;21142;-89
2021/01/19 05:04:24;;;;;;;202.05;94.25;;;;;;;-5.63;73.52;98686.31;2147266;83;21178;-89
2021/01/19 05:07:26;;;;;;;218.97;96.85;;;;;;;-5.63;73.78;98679.94;2147180;83;21166;-89
2021/01/19 05:10:27;;;;;;;212.17;96.02;;;;;;;-5.65;73.73;98684.75;2147476;83;21159;-89
2021/01/19 05:13:29;;;;;;;202.50;96.00;;;;;;;-5.67;73.95;98675.87;2147370;83;21138;-88
2021/01/19 05:16:31;;;;;;;179.15;88.07;;;;;;;-5.64;73.88;98685.13;2147325;83;21151;-89
2021/01/19 05:19:33;;;;;;;218.10;100.62;;;;;;;-5.63;73.84;98672.73;2147225;83;21638;-90
2021/01/19 05:22:34;;;;;;;211.60;100.58;;;;;;;-5.60;73.80;98675.94;2147379;83;21127;-89
2021/01/19 05:25:36;;;;;;;215.55;100.30;;;;;;;-5.55;73.91;98678.27;2147192;83;21610;-89
2021/01/19 05:28:38;;;;;;;214.50;99.15;;;;;;;-5.51;73.84;98672.08;2147245;83;21610;-88
2021/01/19 05:31:40;;;;;;;216.55;102.50;;;;;;;-5.48;74.02;98673.22;2119065;83;21151;-89
2021/01/19 05:34:42;;;;;;;220.78;99.75;;;;;;;-5.50;73.76;98678.38;2147667;83;21158;-89
2021/01/19 05:37:44;;;;;;;207.50;97.27;;;;;;;-5.48;73.83;98675.32;2147364;83;21182;-89
2021/01/19 05:40:45;;;;;;;215.05;101.60;;;;;;;-5.46;73.87;98673.50;2147401;83;21147;-89
2021/01/19 05:43:47;;;;;;;206.15;98.05;;;;;;;-5.40;73.92;98678.72;2147724;83;21555;-88
2021/01/19 05:46:49;;;;;;;227.38;103.50;;;;;;;-5.36;73.92;98665.36;2147363;83;21153;-89
2021/01/19 05:49:51;;;;;;;214.88;99.03;;;;;;;-5.33;74.00;98670.30;2147292;83;21174;-90
2021/01/19 05:52:53;;;;;;;213.50;99.65;;;;;;;-5.29;74.26;98666.23;2147759;83;21285;-87
2021/01/19 05:55:55;;;;;;;204.68;93.70;;;;;;;-5.24;74.34;98671.91;2147714;83;21716;-90
2021/01/19 05:58:57;;;;;;;209.20;95.55;;;;;;;-5.26;74.27;98669.07;2147533;83;21190;-93
2021/01/19 06:01:59;;;;;;;222.22;103.22;;;;;;;-5.22;74.44;98667.98;2147212;83;21158;-90
2021/01/19 06:05:00;;;;;;;224.25;105.27;;;;;;;-5.10;74.47;98666.53;2147343;83;21628;-89
2021/01/19 06:08:03;;;;;;;221.20;101.27;;;;;;;-5.01;74.40;98659.19;2147373;83;21555;-92
2021/01/19 06:11:04;;;;;;;205.30;98.87;;;;;;;-4.96;74.33;98660.20;2147508;83;21173;-90
2021/01/19 06:14:06;;;;;;;218.75;103.15;;;;;;;-4.85;74.37;98655.32;2148778;83;21245;-89
2021/01/19 06:17:07;;;;;;;211.32;103.85;;;;;;;-4.88;74.18;98656.78;2151895;83;21301;-89
2021/01/19 06:20:09;;;;;;;212.02;96.28;;;;;;;-4.81;74.45;98656.81;2149768;83;21146;-88
2021/01/19 06:23:11;;;;;;;205.98;96.72;;;;;;;-4.75;74.60;98652.66;2147649;83;21308;-86
2021/01/19 06:26:13;;;;;;;208.23;94.55;;;;;;;-4.67;74.70;98648.38;2146707;81;21597;-89
2021/01/19 06:29:15;;;;;;;201.50;98.05;;;;;;;-4.58;74.66;98652.97;2147487;83;21324;-89
2021/01/19 06:32:16;;;;;;;200.43;97.40;;;;;;;-4.52;74.80;98653.09;2146874;83;21636;-88
2021/01/19 06:35:18;;;;;;;205.80;100.05;;;;;;;-4.46;75.11;98656.58;2150961;83;21281;-87
2021/01/19 06:38:19;;;;;;;204.25;97.08;;;;;;;-4.38;75.22;98656.52;2150775;82;21146;-88
2021/01/19 06:41:21;;;;;;;192.25;94.77;;;;;;;-4.24;75.23;98663.38;2147820;83;21153;-88
2021/01/19 06:44:22;;;;;;;204.20;99.25;;;;;;;-4.11;75.31;98658.41;2147172;83;21170;-93
2021/01/19 06:47:24;;;;;;;202.55;98.50;;;;;;;-4.04;75.32;98654.09;2146983;83;21188;-88
2021/01/19 06:50:25;;;;;;;205.35;104.45;;;;;;;-3.91;75.33;98651.66;2146931;83;21151;-89
2021/01/19 06:53:27;;;;;;;197.68;99.00;;;;;;;-3.86;75.12;98647.53;2146921;83;21120;-92
2021/01/19 06:56:28;;;;;;;195.75;97.15;;;;;;;-3.83;75.23;98640.98;2147557;83;21320;-87
2021/01/19 06:59:30;;;;;;;183.37;88.90;;;;;;;-3.69;75.49;98642.70;2146794;83;21189;-87
2021/01/19 07:02:32;;;;;;;184.32;86.95;;;;;;;-3.56;75.59;98641.06;2146614;83;21174;-87
2021/01/19 07:05:33;;;;;;;186.22;86.75;;;;;;;-3.46;75.72;98637.84;2147007;83;21704;-85
2021/01/19 07:08:35;;;;;;;178.60;88.82;;;;;;;-3.39;75.75;98638.73;2146741;83;21130;-85
2021/01/19 07:11:36;;;;;;;172.47;83.62;;;;;;;-3.25;75.94;98640.81;2146637;83;21638;-84
2021/01/19 07:14:38;;;;;;;153.80;78.25;;;;;;;-3.10;75.94;98649.77;2146624;83;21166;-85
2021/01/19 07:17:40;;;;;;;180.20;87.60;;;;;;;-2.99;75.93;98647.34;2146931;83;21177;-85
2021/01/19 07:20:42;;;;;;;209.30;104.58;;;;;;;-2.82;75.95;98641.17;2146612;83;21130;-86
2021/01/19 07:23:44;;;;;;;196.68;94.22;;;;;;;-2.78;75.62;98651.11;2146723;83;21589;-85
2021/01/19 07:26:46;;;;;;;205.75;99.62;;;;;;;-2.79;74.98;98655.06;2144115;81;21179;-85
2021/01/19 07:29:47;;;;;;;202.62;96.75;;;;;;;-2.87;74.96;98648.67;2162404;82;21303;-84
2021/01/19 07:32:50;;;;;;;209.90;103.85;;;;;;;-2.87;75.08;98649.95;2123343;84;21643;-85
2021/01/19 07:35:52;;;;;;;199.20;99.92;;;;;;;-2.77;75.45;98646.80;2161633;82;21299;-85
2021/01/19 07:38:54;;;;;;;198.38;98.17;;;;;;;-2.76;75.46;98639.48;2123046;84;21143;-85
2021/01/19 07:41:55;;;;;;;215.12;102.07;;;;;;;-2.66;75.65;98641.81;2161559;81;21296;-86
2021/01/19 07:44:57;;;;;;;186.95;93.33;;;;;;;-2.50;75.57;98645.03;2162198;82;21280;-85
2021/01/19 07:47:59;;;;;;;203.77;100.65;;;;;;;-2.29;75.75;98641.53;2162622;82;21169;-85
2021/01/19 07:51:00;;;;;;;196.05;97.30;;;;;;;-2.11;75.67;98644.16;2162225;82;21644;-85
2021/01/19 07:54:02;;;;;;;183.95;91.37;;;;;;;-1.97;75.52;98641.98;2162197;82;21283;-85
2021/01/19 07:57:04;;;;;;;177.60;92.37;;;;;;;-1.81;75.52;98632.80;2162298;82;21639;-88
2021/01/19 08:00:05;;;;;;;171.65;89.80;;;;;;;-1.74;75.45;98636.56;2162638;82;21288;-87
2021/01/19 08:03:07;;;;;;;204.30;103.10;;;;;;;-1.63;75.28;98631.55;2162451;82;21302;-87
2021/01/19 08:06:09;;;;;;;185.18;96.63;;;;;;;-1.56;75.07;98631.92;2162454;82;21720;-88
2021/01/19 08:09:11;;;;;;;203.35;102.07;;;;;;;-1.46;74.93;98631.21;2162180;82;21715;-87
2021/01/19 08:12:14;;;;;;;178.72;91.30;;;;;;;-1.44;74.66;98629.81;2162168;82;21770;-85
2021/01/19 08:15:16;;;;;;;193.43;96.90;;;;;;;-1.31;74.58;98624.64;2162698;82;21784;-87
2021/01/19 08:18:18;;;;;;;194.50;98.33;;;;;;;-1.35;74.70;98625.80;2162190;82;21193;-87
2021/01/19 08:21:20;;;;;;;195.40;102.55;;;;;;;-1.29;74.70;98623.59;2162597;82;21295;-87
2021/01/19 08:24:21;;;;;;;196.35;96.28;;;;;;;-1.13;74.93;98623.81;2162636;82;21291;-87
2021/01/19 08:27:23;;;;;;;184.87;96.82;;;;;;;-0.98;74.78;98618.88;2175501;81;21189;-87
2021/01/19 08:30:26;;;;;;;150.95;78.52;;;;;;;-0.88;74.76;98619.87;2183629;81;21160;-87
2021/01/19 08:33:28;;;;;;;116.30;67.47;;;;;;;-0.75;76.30;98619.33;2154264;83;21634;-86
2021/01/19 08:36:30;;;;;;;85.80;54.08;;;;;;;-0.56;77.17;98618.81;2154749;83;21295;-87
2021/01/19 08:39:31;;;;;;;54.75;34.20;;;;;;;-0.33;77.81;98622.29;2154481;83;21699;-88
2021/01/19 08:42:33;;;;;;;47.83;28.98;;;;;;;-0.12;78.20;98619.40;2154226;83;21168;-89
2021/01/19 08:45:34;;;;;;;38.85;25.00;;;;;;;0.10;78.13;98616.52;2154141;83;21176;-88
2021/01/19 08:48:36;;;;;;;43.28;28.02;;;;;;;0.30;78.31;98620.97;2154443;83;21299;-86
2021/01/19 08:51:37;;;;;;;44.65;29.70;;;;;;;0.51;78.55;98615.92;2154261;83;21631;-88
2021/01/19 08:54:39;;;;;;;53.48;35.38;;;;;;;0.73;78.53;98624.08;2154237;83;21314;-89
2021/01/19 08:57:43;;;;;;;74.00;54.03;;;;;;;0.96;78.44;98617.14;2154308;83;21263;-88
2021/01/19 09:00:45;;;;;;;59.35;37.73;;;;;;;1.19;78.32;98625.17;2154330;83;21302;-88
2021/01/19 09:03:46;;;;;;;57.98;38.40;;;;;;;1.37;77.93;98625.43;2154890;83;21275;-86
2021/01/19 09:06:48;;;;;;;43.40;30.82;;;;;;;1.56;77.79;98626.08;2155996;83;21181;-87
2021/01/19 09:09:50;;;;;;;46.42;28.85;;;;;;;1.68;77.76;98627.18;2157428;83;21157;-87
2021/01/19 09:12:53;;;;;;;34.58;23.75;;;;;;;1.86;77.57;98622.75;2154866;83;21787;-89
2021/01/19 09:15:54;;;;;;;40.78;25.82;;;;;;;2.05;77.46;98637.53;2155141;83;21355;-87
2021/01/19 09:18:56;;;;;;;35.15;24.27;;;;;;;2.19;77.33;98634.13;2127402;83;21149;-89
2021/01/19 09:21:59;;;;;;;45.08;30.95;;;;;;;2.28;77.23;98631.25;2155850;83;21730;-89
2021/01/19 09:25:01;;;;;;;33.05;26.70;;;;;;;2.30;77.25;98619.52;2154786;83;21193;-87
2021/01/19 09:28:03;;;;;;;45.38;32.17;;;;;;;2.35;77.30;98621.22;2154998;83;21170;-88
2021/01/19 09:31:05;;;;;;;57.05;34.67;;;;;;;2.40;77.28;98617.31;2183658;82;21141;-88
2021/01/19 09:34:07;;;;;;;42.73;25.30;;;;;;;2.46;77.28;98623.70;2180093;81;21138;-87
2021/01/19 09:37:10;;;;;;;39.48;25.08;;;;;;;2.52;77.29;98611.56;2179803;81;21765;-87
2021/01/19 09:40:12;;;;;;;35.83;23.00;;;;;;;2.62;77.31;98611.59;2180101;81;21352;-87
2021/01/19 09:43:13;;;;;;;57.03;33.53;;;;;;;2.75;77.20;98616.06;2146735;83;21622;-86
2021/01/19 09:46:15;;;;;;;39.18;25.60;;;;;;;2.83;77.13;98595.51;2146914;83;21155;-86
2021/01/19 09:49:17;;;;;;;192.75;54.65;;;;;;;2.87;76.99;98598.19;2147187;83;21277;-86
2021/01/19 09:52:19;;;;;;;108.72;41.33;;;;;;;2.97;77.12;98599.50;2147063;83;21320;-86
2021/01/19 09:55:21;;;;;;;185.20;52.30;;;;;;;3.02;77.04;98599.92;2146935;83;21583;-87
2021/01/19 09:58:22;;;;;;;280.20;72.42;;;;;;;3.07;76.93;98599.03;2147379;83;21199;-86
2021/01/19 10:01:24;;;;;;;82.80;36.85;;;;;;;3.11;76.79;98592.65;2146693;83;21178;-86
2021/01/19 10:04:26;;;;;;;70.40;31.90;;;;;;;3.22;76.72;98592.98;2146693;83;21150;-87
2021/01/19 10:07:27;;;;;;;66.72;33.05;;;;;;;3.25;76.52;98586.23;2146719;83;21135;-86
2021/01/19 10:10:29;;;;;;;105.03;48.35;;;;;;;3.26;76.70;98590.45;2147006;83;21300;-86
2021/01/19 10:13:30;;;;;;;99.28;42.60;;;;;;;3.27;76.63;98584.33;2146884;83;21605;-86
2021/01/19 10:16:32;;;;;;;66.37;31.65;;;;;;;3.26;76.74;98579.62;2117857;83;21162;-86
2021/01/19 10:19:34;;;;;;;63.80;38.88;;;;;;;3.28;76.58;98580.30;2146962;83;21143;-87
2021/01/19 10:22:35;;;;;;;61.40;32.48;;;;;;;3.36;76.49;98570.08;2147153;83;21293;-86
2021/01/19 10:25:37;;;;;;;40.40;24.23;;;;;;;3.48;76.54;98566.08;2147084;83;21716;-87
2021/01/19 10:28:39;;;;;;;53.30;26.30;;;;;;;3.57;76.29;98564.77;2142721;83;21180;-86
2021/01/19 10:31:41;;;;;;;58.55;26.90;;;;;;;3.60;76.12;98568.84;2142032;82;21276;-88
2021/01/19 10:34:43;;;;;;;47.67;24.27;;;;;;;3.67;76.19;98564.75;2142058;83;21788;-87
2021/01/19 10:37:44;;;;;;;37.13;22.35;;;;;;;3.70;76.06;98563.17;2161698;82;21344;-87
2021/01/19 10:40:46;;;;;;;43.65;23.95;;;;;;;3.73;76.00;98554.30;2123368;83;22252;-87
2021/01/19 10:43:47;;;;;;;58.35;31.73;;;;;;;3.75;75.76;98561.44;2161991;82;21292;-87
2021/01/19 10:46:49;;;;;;;54.18;29.87;;;;;;;3.79;75.66;98552.45;2162364;82;21290;-87
2021/01/19 10:49:51;;;;;;;44.98;26.85;;;;;;;3.84;75.51;98554.97;2162379;82;21743;-87
2021/01/19 10:52:53;;;;;;;34.18;20.50;;;;;;;3.94;75.58;98554.94;2142660;83;21277;-87
2021/01/19 10:55:55;;;;;;;36.73;21.33;;;;;;;4.05;75.28;98544.87;2142325;83;21199;-87
2021/01/19 10:58:56;;;;;;;41.18;24.85;;;;;;;4.15;75.14;98546.47;2161804;82;21336;-86
2021/01/19 11:01:58;;;;;;;61.10;27.32;;;;;;;4.20;74.76;98535.17;2123084;84;21156;-87
2021/01/19 11:05:00;;;;;;;193.78;66.15;;;;;;;4.24;74.26;98538.31;2161889;82;21300;-87
2021/01/19 11:08:01;;;;;;;285.48;102.20;;;;;;;4.23;74.37;98524.55;2123209;84;21151;-87
2021/01/19 11:11:03;;;;;;;175.95;83.47;;;;;;;4.24;74.46;98533.95;2161873;82;21720;-88
2021/01/19 11:14:05;;;;;;;87.12;36.33;;;;;;;4.25;74.66;98532.98;2162541;82;21299;-87
2021/01/19 11:17:07;;;;;;;108.57;44.90;;;;;;;4.33;74.58;98534.05;2162387;82;21158;-88
2021/01/19 11:20:08;;;;;;;68.72;27.50;;;;;;;4.39;74.44;98533.00;2141601;83;21682;-88
2021/01/19 11:23:10;;;;;;;47.48;22.87;;;;;;;4.38;74.18;98529.23;2142139;82;21313;-88
2021/01/19 11:26:11;;;;;;;45.05;20.55;;;;;;;4.42;74.05;98518.92;2141817;82;21302;-88
2021/01/19 11:29:13;;;;;;;43.00;20.37;;;;;;;4.41;73.91;98519.89;2146436;82;21178;-89
2021/01/19 11:32:15;;;;;;;105.85;38.30;;;;;;;4.43;74.18;98521.37;2146542;83;21166;-88
2021/01/19 11:35:17;;;;;;;108.42;50.03;;;;;;;4.48;74.11;98514.43;2146712;83;21630;-89
2021/01/19 11:38:18;;;;;;;115.32;42.60;;;;;;;4.48;74.06;98519.16;2146814;83;21189;-88
2021/01/19 11:41:20;;;;;;;93.82;31.85;;;;;;;4.51;73.82;98517.56;2146593;83;21154;-89
2021/01/19 11:44:23;;;;;;;39.65;21.45;;;;;;;4.49;73.76;98517.39;2146433;83;21099;-89
2021/01/19 11:47:24;;;;;;;35.00;20.85;;;;;;;4.46;73.66;98517.66;2146844;83;21143;-88
2021/01/19 11:50:26;;;;;;;37.67;21.40;;;;;;;4.48;73.57;98512.69;2146905;83;21307;-89
2021/01/19 11:53:28;;;;;;;32.28;18.55;;;;;;;4.50;73.58;98507.34;2147140;83;21127;-89
2021/01/19 11:56:30;;;;;;;71.02;33.08;;;;;;;4.46;73.54;98508.10;2147176;83;21761;-89
2021/01/19 11:59:31;;;;;;;40.38;22.22;;;;;;;4.44;73.72;98504.84;2146735;83;21154;-89
2021/01/19 12:02:33;;;;;;;50.92;26.10;;;;;;;4.44;73.59;98497.55;2147154;83;21280;-88
2021/01/19 12:05:35;;;;;;;24.02;16.95;;;;;;;4.35;73.55;98490.16;2147025;83;21227;-88
2021/01/19 12:08:37;;;;;;;35.20;19.62;;;;;;;4.27;73.54;98488.77;2146759;83;21597;-89
2021/01/19 12:11:39;;;;;;;30.00;17.85;;;;;;;4.23;73.65;98488.26;2146675;83;21591;-89
2021/01/19 12:14:40;;;;;;;31.07;18.07;;;;;;;4.16;73.87;98493.67;2146953;83;21324;-87
2021/01/19 12:17:42;;;;;;;62.58;32.75;;;;;;;4.12;73.86;98484.57;2146874;83;21170;-88
2021/01/19 12:20:44;;;;;;;100.05;38.53;;;;;;;4.04;74.10;98483.17;2147012;83;21591;-88
2021/01/19 12:23:45;;;;;;;61.10;28.60;;;;;;;3.99;74.22;98482.78;2148983;83;21142;-87
2021/01/19 12:26:47;;;;;;;49.73;22.70;;;;;;;3.97;74.33;98477.74;2147893;82;21297;-89
2021/01/19 12:29:49;;;;;;;67.40;25.10;;;;;;;3.96;74.25;98470.13;2147218;83;21630;-88
2021/01/19 12:32:52;;;;;;;48.70;23.32;;;;;;;3.99;74.46;98467.23;2146992;83;21189;-87
2021/01/19 12:35:53;;;;;;;54.15;23.87;;;;;;;3.98;74.27;98468.19;2146765;83;21150;-88
2021/01/19 12:38:55;;;;;;;43.10;25.70;;;;;;;3.95;74.39;98464.13;2146687;83;21178;-88
2021/01/19 12:41:56;;;;;;;99.87;46.20;;;;;;;3.94;74.32;98461.20;2147078;83;21178;-89
2021/01/19 12:44:58;;;;;;;69.15;33.30;;;;;;;4.01;74.45;98458.83;2147280;83;21182;-87
2021/01/19 12:48:00;;;;;;;59.13;29.72;;;;;;;4.00;74.42;98452.83;2146931;83;21661;-88
2021/01/19 12:51:02;;;;;;;38.50;22.75;;;;;;;4.07;74.53;98450.97;2146949;83;21150;-88
2021/01/19 12:54:03;;;;;;;42.23;22.07;;;;;;;4.22;74.55;98452.13;2147231;83;21320;-88
2021/01/19 12:57:05;;;;;;;69.97;34.25;;;;;;;4.23;74.28;98448.09;2146937;83;21708;-88
2021/01/19 13:00:07;;;;;;;57.08;27.85;;;;;;;4.20;74.25;98450.13;2146741;83;21170;-87
2021/01/19 13:03:10;;;;;;;107.40;50.43;;;;;;;4.23;74.24;98447.27;2118113;83;21289;-88
2021/01/19 13:06:12;;;;;;;107.32;41.33;;;;;;;4.23;74.17;98440.80;2146967;83;21167;-87
2021/01/19 13:09:13;;;;;;;85.22;32.10;;;;;;;4.22;74.19;98438.69;2146705;83;21157;-86
2021/01/19 13:12:16;;;;;;;54.33;24.27;;;;;;;4.24;74.18;98443.72;2146864;83;21166;-87
2021/01/19 13:15:18;;;;;;;60.67;26.23;;;;;;;4.28;74.24;98442.45;2146872;83;21173;-88
2021/01/19 13:18:20;;;;;;;48.78;19.57;;;;;;;4.32;74.23;98445.58;2146739;83;21487;-88
2021/01/19 13:21:22;;;;;;;41.37;25.17;;;;;;;4.28;74.16;98447.63;2146801;83;21595;-90
2021/01/19 13:24:24;;;;;;;71.40;32.17;;;;;;;4.22;74.22;98439.98;2146872;83;21569;-89
2021/01/19 13:27:25;;;;;;;108.80;35.85;;;;;;;4.13;74.17;98438.26;2145968;82;21309;-89
2021/01/19 13:30:27;;;;;;;66.37;27.22;;;;;;;4.06;74.36;98444.98;2161946;82;21273;-89
2021/01/19 13:33:30;;;;;;;37.13;21.37;;;;;;;4.02;74.53;98441.02;2123174;84;21177;-88
2021/01/19 13:36:32;;;;;;;32.85;18.35;;;;;;;4.06;74.57;98437.69;2161578;82;21324;-89
2021/01/19 13:39:33;;;;;;;48.40;22.27;;;;;;;4.03;74.63;98437.50;2162243;82;21165;-88
2021/01/19 13:42:35;;;;;;;41.18;20.57;;;;;;;4.08;74.76;98431.39;2162336;82;21284;-89
2021/01/19 13:45:37;;;;;;;45.70;25.08;;;;;;;4.10;74.72;98428.16;2162621;82;21149;-89
2021/01/19 13:48:39;;;;;;;50.58;27.62;;;;;;;4.15;74.72;98431.15;2162577;82;21307;-89
2021/01/19 13:51:40;;;;;;;34.33;22.30;;;;;;;4.10;74.66;98428.16;2162314;82;21307;-89